North Myrtle Beach, South Carolina
Current Conditions -  °F | °C
As of 2:53 AM on Tuesday 27 Jan 2015 (Local Time) from KCRE Reporting Station
Few Clouds Few Clouds  
Wind Chill: 41°   Ceiling: Unl
Heat Index: 44°   Visibility: 10mi
Dew Point: 35°   Wind: 6mph
Humidity: 71%   Direction: 310°NW
Pressure: 29.7"   Gusts: NA
Location:  33.83°N, 78.68°W
Report Text: KCRE 270753Z AUTO 31005KT 10SM FEW033 FEW055 07/02 A2970 RMK AO1 SLP059 T00670017
Loading
Personal Weather Stations






























Interactive Weather Map New forecast layout! Learn more

10-Day Weather Forecast

Advertisements
Track Severe Weather on mobile